Time;durP1;ratioP1;P1;durP2;ratioP2;P2;SDS_P1;SDS_P2;PMS_P1;PMS_P2;Temp;Humidity;BMP_temperature;BMP_pressure;BME280_temperature;BME280_humidity;BME280_pressure;Samples;Min_cycle;Max_cycle;Signal;HPM_P1;HPM_P2
2023/10/27 00:01:10;;;;;;;5.55;1.98;;;18.10;99.90;;;;;;4829643;29;20030;-77
2023/10/27 00:03:36;;;;;;;5.05;2.03;;;18.00;99.90;;;;;;4841678;29;20038;-77
2023/10/27 00:06:02;;;;;;;4.00;1.80;;;18.00;99.90;;;;;;4841400;29;20440;-76
2023/10/27 00:08:28;;;;;;;3.67;1.48;;;18.00;99.90;;;;;;4853886;29;20086;-77
2023/10/27 00:10:54;;;;;;;3.15;1.45;;;18.00;99.90;;;;;;4841638;29;20029;-77
2023/10/27 00:13:20;;;;;;;2.90;1.40;;;18.00;99.90;;;;;;4841490;29;20057;-77
2023/10/27 00:15:46;;;;;;;3.45;1.92;;;18.10;99.90;;;;;;4841388;29;20451;-77
2023/10/27 00:18:12;;;;;;;3.40;1.98;;;18.10;99.90;;;;;;4841548;29;20026;-77
2023/10/27 00:20:38;;;;;;;6.97;2.20;;;18.10;99.90;;;;;;4841462;29;20026;-77
2023/10/27 00:23:05;;;;;;;3.78;1.85;;;18.10;99.90;;;;;;4847335;29;20029;-76
2023/10/27 00:25:31;;;;;;;3.25;1.52;;;18.10;99.90;;;;;;4841460;29;20030;-77
2023/10/27 00:27:56;;;;;;;3.17;1.90;;;18.10;99.90;;;;;;4841230;29;20041;-77
2023/10/27 00:30:22;;;;;;;4.50;1.90;;;18.10;99.90;;;;;;4841419;29;20033;-77
2023/10/27 00:32:48;;;;;;;5.03;2.35;;;18.10;99.90;;;;;;4825050;29;20033;-77
2023/10/27 00:35:14;;;;;;;5.40;2.20;;;18.20;99.90;;;;;;4841431;29;20042;-77
2023/10/27 00:37:40;;;;;;;7.75;3.30;;;18.20;99.90;;;;;;4841025;29;20042;-77
2023/10/27 00:40:09;;;;;;;6.18;3.28;;;18.20;99.90;;;;;;4841504;29;20038;-77
2023/10/27 00:42:35;;;;;;;8.43;3.47;;;18.20;99.90;;;;;;4840844;29;20037;-77
2023/10/27 00:45:02;;;;;;;6.18;2.88;;;18.20;99.90;;;;;;4841500;29;20030;-77
2023/10/27 00:47:30;;;;;;;6.10;2.55;;;18.20;99.90;;;;;;4824746;29;20482;-77
2023/10/27 00:49:56;;;;;;;7.47;2.92;;;18.20;99.90;;;;;;4824820;29;20108;-77
2023/10/27 00:52:24;;;;;;;5.70;2.25;;;18.20;99.90;;;;;;4841175;29;20119;-77
2023/10/27 00:54:53;;;;;;;6.43;2.35;;;18.20;99.90;;;;;;4824473;29;20490;-77
2023/10/27 00:57:20;;;;;;;4.15;2.53;;;18.20;99.90;;;;;;4824672;29;20027;-77
2023/10/27 00:59:46;;;;;;;6.93;2.85;;;18.20;99.90;;;;;;4841051;29;20026;-77
2023/10/27 01:02:16;;;;;;;5.95;2.63;;;18.10;99.90;;;;;;4841103;29;20073;-77
2023/10/27 01:04:42;;;;;;;5.85;3.17;;;18.10;99.90;;;;;;4824444;29;20030;-77
2023/10/27 01:07:08;;;;;;;6.70;2.88;;;18.10;99.90;;;;;;4840633;29;20033;-77
2023/10/27 01:09:34;;;;;;;6.32;2.72;;;18.10;99.90;;;;;;4824838;29;20053;-77
2023/10/27 01:12:01;;;;;;;5.10;2.40;;;18.10;99.90;;;;;;4824395;29;20133;-76
2023/10/27 01:14:27;;;;;;;4.93;2.40;;;18.00;99.90;;;;;;4824621;29;20490;-77
2023/10/27 01:16:54;;;;;;;8.10;2.53;;;18.00;99.90;;;;;;4837208;29;20033;-77
2023/10/27 01:19:20;;;;;;;6.53;2.25;;;18.00;99.90;;;;;;4853742;29;20032;-75
2023/10/27 01:21:46;;;;;;;3.97;1.60;;;18.00;99.90;;;;;;4815542;29;20419;-77
2023/10/27 01:24:12;;;;;;;6.72;2.40;;;17.90;99.90;;;;;;4836602;29;20546;-77
2023/10/27 01:26:38;;;;;;;5.55;2.25;;;17.90;99.90;;;;;;4843580;29;20577;-77
2023/10/27 01:29:03;;;;;;;4.82;2.13;;;17.90;99.90;;;;;;4835769;29;20052;-77
2023/10/27 01:31:30;;;;;;;4.43;1.95;;;17.90;99.90;;;;;;4847781;29;20504;-77
2023/10/27 01:33:56;;;;;;;3.30;1.60;;;17.90;99.90;;;;;;4827476;29;20554;-77
2023/10/27 01:36:21;;;;;;;4.40;1.90;;;17.90;99.90;;;;;;4844121;29;20146;-77
2023/10/27 01:38:47;;;;;;;3.47;1.73;;;17.90;99.90;;;;;;4827765;29;20063;-77
2023/10/27 01:41:13;;;;;;;4.55;1.83;;;18.00;99.90;;;;;;4827373;29;20064;-77
2023/10/27 01:43:39;;;;;;;6.50;2.40;;;18.00;99.90;;;;;;4827127;29;20042;-77
2023/10/27 01:46:05;;;;;;;5.78;2.42;;;18.00;99.90;;;;;;4844059;29;20065;-77
2023/10/27 01:48:31;;;;;;;4.53;2.05;;;18.00;99.90;;;;;;4827369;29;20034;-76
2023/10/27 01:50:57;;;;;;;5.25;2.10;;;18.00;99.90;;;;;;4827352;29;20038;-78
2023/10/27 01:53:23;;;;;;;4.68;1.92;;;18.00;99.90;;;;;;4818408;29;20402;-77
2023/10/27 01:55:49;;;;;;;5.78;2.38;;;18.00;99.90;;;;;;4840460;29;20068;-77
2023/10/27 01:58:14;;;;;;;3.05;1.83;;;18.00;99.90;;;;;;4827195;29;20030;-77
2023/10/27 02:00:41;;;;;;;3.60;1.70;;;18.00;99.90;;;;;;4827061;29;20109;-76
2023/10/27 02:03:06;;;;;;;3.53;1.80;;;18.00;99.90;;;;;;4843869;29;20034;-77
2023/10/27 02:05:32;;;;;;;3.88;1.60;;;18.00;99.90;;;;;;4826875;29;20490;-76
2023/10/27 02:08:02;;;;;;;4.22;2.17;;;18.00;99.90;;;;;;4827265;29;20034;-77
2023/10/27 02:10:28;;;;;;;4.07;1.73;;;18.00;99.90;;;;;;4843292;29;20058;-76
2023/10/27 02:12:53;;;;;;;4.63;2.20;;;18.00;99.90;;;;;;4827090;29;20732;-77
2023/10/27 02:15:19;;;;;;;2.72;1.35;;;18.00;99.90;;;;;;4826761;29;20038;-77
2023/10/27 02:17:45;;;;;;;5.70;1.95;;;18.00;99.90;;;;;;4843607;29;20026;-77
2023/10/27 02:20:11;;;;;;;3.38;1.70;;;18.00;99.90;;;;;;4826625;29;20030;-77
2023/10/27 02:22:40;;;;;;;3.83;1.27;;;18.10;99.90;;;;;;4843526;29;20483;-77
2023/10/27 02:25:06;;;;;;;2.58;1.30;;;18.00;99.90;;;;;;4843107;29;20033;-76
2023/10/27 02:27:38;;;;;;;2.65;1.40;;;18.00;99.90;;;;;;4836124;29;20129;-76
2023/10/27 02:30:06;;;;;;;2.05;1.45;;;18.00;99.90;;;;;;4828866;29;20078;-76
2023/10/27 02:32:31;;;;;;;3.00;1.58;;;18.00;99.90;;;;;;4826647;29;20034;-77
2023/10/27 02:34:57;;;;;;;5.80;1.45;;;18.00;99.90;;;;;;4826641;29;20062;-77
2023/10/27 02:37:23;;;;;;;3.63;1.73;;;18.10;99.90;;;;;;4826672;29;20034;-77
2023/10/27 02:39:50;;;;;;;4.57;1.70;;;18.10;99.90;;;;;;4842884;29;20105;-76
2023/10/27 02:42:15;;;;;;;8.30;2.08;;;18.00;99.90;;;;;;4843090;29;20058;-76
2023/10/27 02:44:42;;;;;;;3.00;1.50;;;18.00;99.90;;;;;;4842795;29;20058;-77
2023/10/27 02:47:07;;;;;;;5.63;2.25;;;17.90;99.90;;;;;;4843015;29;20078;-76
2023/10/27 02:49:33;;;;;;;7.32;2.72;;;17.90;99.90;;;;;;4826073;29;20022;-77
2023/10/27 02:51:59;;;;;;;12.93;3.40;;;17.80;99.90;;;;;;4826630;29;20030;-77
2023/10/27 02:54:25;;;;;;;5.53;2.30;;;17.70;99.90;;;;;;4826025;29;20041;-77
2023/10/27 02:56:51;;;;;;;7.03;3.15;;;17.70;99.90;;;;;;4853370;29;20061;-77
2023/10/27 02:59:17;;;;;;;9.23;3.00;;;17.70;99.90;;;;;;4844167;29;20117;-75
2023/10/27 03:01:46;;;;;;;6.72;2.70;;;17.60;99.90;;;;;;4826213;29;20486;-77
2023/10/27 03:04:13;;;;;;;7.45;2.80;;;17.60;99.90;;;;;;4846650;29;20154;-77
2023/10/27 03:06:42;;;;;;;7.97;3.10;;;17.50;99.90;;;;;;4850388;29;20501;-77
2023/10/27 03:09:08;;;;;;;7.40;2.45;;;17.50;99.90;;;;;;4842254;29;20478;-77
2023/10/27 03:11:34;;;;;;;5.63;2.60;;;17.50;99.90;;;;;;4842564;29;20067;-77
2023/10/27 03:14:00;;;;;;;10.07;2.65;;;17.50;99.90;;;;;;4842142;29;20388;-75
2023/10/27 03:16:26;;;;;;;11.23;3.28;;;17.40;99.90;;;;;;4825307;29;20061;-75
2023/10/27 03:18:52;;;;;;;3.90;2.10;;;17.50;99.90;;;;;;4842424;29;20037;-77
2023/10/27 03:21:17;;;;;;;11.63;2.88;;;17.40;99.90;;;;;;4842156;29;20406;-77
2023/10/27 03:23:43;;;;;;;7.75;2.92;;;17.40;99.90;;;;;;4842291;29;20033;-75
2023/10/27 03:26:09;;;;;;;6.53;2.92;;;17.40;99.90;;;;;;4842275;29;20022;-77
2023/10/27 03:28:35;;;;;;;10.38;3.15;;;17.40;99.90;;;;;;4825789;29;20086;-77
2023/10/27 03:31:01;;;;;;;8.32;3.20;;;17.40;99.90;;;;;;4842219;29;20029;-77
2023/10/27 03:33:27;;;;;;;6.38;2.97;;;17.40;99.90;;;;;;4841929;29;20471;-77
2023/10/27 03:35:53;;;;;;;6.45;2.63;;;17.40;99.90;;;;;;4841903;29;20078;-75
2023/10/27 03:38:19;;;;;;;5.00;2.53;;;17.40;99.90;;;;;;4826019;29;20036;-77
2023/10/27 03:40:45;;;;;;;5.13;2.13;;;17.40;99.90;;;;;;4841781;29;20038;-77
2023/10/27 03:43:11;;;;;;;7.88;2.47;;;17.40;99.90;;;;;;4841881;29;20057;-75
2023/10/27 03:45:37;;;;;;;8.07;2.55;;;17.40;99.90;;;;;;4841869;29;20092;-77
2023/10/27 03:48:03;;;;;;;3.92;2.22;;;17.40;99.90;;;;;;4841846;29;20022;-77
2023/10/27 03:50:29;;;;;;;6.68;2.58;;;17.40;99.90;;;;;;4841494;29;20061;-75
2023/10/27 03:52:55;;;;;;;9.75;2.10;;;17.40;99.90;;;;;;4841567;29;20073;-77
2023/10/27 03:55:21;;;;;;;4.60;1.88;;;17.50;99.90;;;;;;4832494;29;20039;-76
2023/10/27 03:57:47;;;;;;;6.10;2.03;;;17.50;99.90;;;;;;4835601;29;20070;-77
2023/10/27 04:00:15;;;;;;;7.32;2.22;;;17.50;99.90;;;;;;4831320;29;20030;-77
2023/10/27 04:02:41;;;;;;;3.90;2.03;;;17.50;99.90;;;;;;4835037;29;20030;-77
2023/10/27 04:05:07;;;;;;;7.25;2.08;;;17.60;99.90;;;;;;4835222;29;20085;-76
2023/10/27 04:07:33;;;;;;;3.78;1.77;;;17.60;99.90;;;;;;4840785;29;20038;-76
2023/10/27 04:09:59;;;;;;;4.95;1.80;;;17.60;99.90;;;;;;4841166;29;20054;-76
2023/10/27 04:12:25;;;;;;;3.15;1.60;;;17.60;99.90;;;;;;4841797;29;20220;-75
2023/10/27 04:14:50;;;;;;;12.13;1.90;;;17.60;99.90;;;;;;4841014;29;20038;-76
2023/10/27 04:17:16;;;;;;;4.70;1.83;;;17.60;99.90;;;;;;4833103;29;20554;-76
2023/10/27 04:19:43;;;;;;;7.35;2.60;;;17.60;99.90;;;;;;4831528;29;20034;-77
2023/10/27 04:22:09;;;;;;;4.60;1.83;;;17.50;99.90;;;;;;4841484;29;20067;-76
2023/10/27 04:24:35;;;;;;;7.43;2.70;;;17.50;99.90;;;;;;4841386;29;20026;-76
2023/10/27 04:27:01;;;;;;;5.95;2.13;;;17.50;99.90;;;;;;4830349;29;20443;-77
2023/10/27 04:29:27;;;;;;;6.57;2.20;;;17.30;99.90;;;;;;4841140;29;20101;-77
2023/10/27 04:31:52;;;;;;;6.13;2.15;;;17.20;99.90;;;;;;4841192;29;20502;-77
2023/10/27 04:34:18;;;;;;;4.25;2.35;;;17.20;99.90;;;;;;4841210;29;20024;-77
2023/10/27 04:36:46;;;;;;;8.82;2.30;;;17.10;99.90;;;;;;4840972;29;20094;-77
2023/10/27 04:39:11;;;;;;;4.47;2.10;;;17.10;99.90;;;;;;4841460;29;20467;-76
2023/10/27 04:41:37;;;;;;;5.93;2.53;;;17.00;99.90;;;;;;4841072;29;20086;-77
2023/10/27 04:44:04;;;;;;;8.02;2.80;;;17.00;99.90;;;;;;4841258;29;20022;-75
2023/10/27 04:46:29;;;;;;;7.05;3.10;;;17.00;99.90;;;;;;4840933;29;20033;-75
2023/10/27 04:48:58;;;;;;;4.00;2.50;;;17.00;99.90;;;;;;4841160;29;20038;-77
2023/10/27 04:51:26;;;;;;;5.47;2.72;;;17.00;99.90;;;;;;4840953;29;20379;-77
2023/10/27 04:53:52;;;;;;;4.55;2.55;;;17.00;99.90;;;;;;4844788;29;20022;-78
2023/10/27 04:56:19;;;;;;;8.23;2.75;;;17.00;99.90;;;;;;4844583;29;20125;-76
2023/10/27 04:58:44;;;;;;;3.50;2.40;;;17.10;99.90;;;;;;4844808;29;20022;-75
2023/10/27 05:01:11;;;;;;;7.90;2.20;;;17.10;99.90;;;;;;4844462;29;20029;-76
2023/10/27 05:03:37;;;;;;;6.05;2.50;;;17.10;99.90;;;;;;4844732;29;20018;-77
2023/10/27 05:06:10;;;;;;;7.35;2.50;;;17.10;99.90;;;;;;4844816;29;20034;-76
2023/10/27 05:08:36;;;;;;;5.65;2.03;;;17.10;99.90;;;;;;4844728;29;20042;-73
2023/10/27 05:11:03;;;;;;;7.40;3.42;;;17.10;99.90;;;;;;4844638;29;20038;-76
2023/10/27 05:13:30;;;;;;;5.93;2.53;;;17.10;99.90;;;;;;4844449;29;20479;-75
2023/10/27 05:15:55;;;;;;;7.65;2.67;;;17.10;99.90;;;;;;4844219;29;20106;-75
2023/10/27 05:18:21;;;;;;;5.32;2.55;;;17.20;99.90;;;;;;4844433;29;20471;-75
2023/10/27 05:20:48;;;;;;;4.75;2.58;;;17.20;99.90;;;;;;4844055;29;20113;-75
2023/10/27 05:23:14;;;;;;;7.22;2.95;;;17.30;99.90;;;;;;4844419;29;20030;-75
2023/10/27 05:25:40;;;;;;;7.97;2.92;;;17.30;99.90;;;;;;4844222;29;20563;-76
2023/10/27 05:28:07;;;;;;;6.95;3.00;;;17.30;99.90;;;;;;4844538;29;20409;-77
2023/10/27 05:30:37;;;;;;;7.30;2.95;;;17.40;99.90;;;;;;4844286;29;20391;-73
2023/10/27 05:33:03;;;;;;;8.15;3.65;;;17.40;99.90;;;;;;4844297;29;20109;-77
2023/10/27 05:35:29;;;;;;;11.20;3.72;;;17.40;99.90;;;;;;4843904;29;20038;-75
2023/10/27 05:37:55;;;;;;;11.65;4.78;;;17.40;99.90;;;;;;4844180;29;20082;-77
2023/10/27 05:40:22;;;;;;;13.18;3.85;;;17.40;99.90;;;;;;4844245;29;20040;-76
2023/10/27 05:42:48;;;;;;;17.48;5.18;;;17.40;99.90;;;;;;4843782;29;20539;-76
2023/10/27 05:45:14;;;;;;;18.40;7.95;;;17.50;99.90;;;;;;4827840;29;20046;-77
2023/10/27 05:47:41;;;;;;;19.15;9.00;;;17.50;99.90;;;;;;4843694;29;20069;-76
2023/10/27 05:50:07;;;;;;;22.15;11.18;;;17.50;99.90;;;;;;4844262;29;20475;-77
2023/10/27 05:52:34;;;;;;;22.13;11.02;;;17.50;99.90;;;;;;4846612;29;20394;-76
2023/10/27 05:55:00;;;;;;;21.10;8.10;;;17.50;99.90;;;;;;4853223;29;20041;-76
2023/10/27 05:57:26;;;;;;;16.02;5.85;;;17.50;99.90;;;;;;4843749;29;20452;-76
2023/10/27 05:59:52;;;;;;;15.68;5.82;;;17.60;99.90;;;;;;4843873;29;20033;-75
2023/10/27 06:02:18;;;;;;;14.18;5.93;;;17.60;99.90;;;;;;4843607;29;20395;-76
2023/10/27 06:04:44;;;;;;;14.80;5.25;;;17.70;99.90;;;;;;4843445;29;20026;-77
2023/10/27 06:07:10;;;;;;;12.68;3.92;;;17.70;99.90;;;;;;4843289;29;20034;-74
2023/10/27 06:09:36;;;;;;;9.00;4.05;;;17.70;99.90;;;;;;4843551;29;20050;-77
2023/10/27 06:12:02;;;;;;;10.32;3.90;;;17.70;99.90;;;;;;4843606;29;20033;-76
2023/10/27 06:14:28;;;;;;;11.75;3.97;;;17.70;99.90;;;;;;4843542;29;20026;-76
2023/10/27 06:16:54;;;;;;;13.02;4.10;;;17.80;99.90;;;;;;4843323;29;20041;-76
2023/10/27 06:19:20;;;;;;;10.65;3.92;;;17.80;99.90;;;;;;4843051;29;20043;-77
2023/10/27 06:21:47;;;;;;;9.20;3.55;;;17.90;99.90;;;;;;4843197;29;20072;-75
2023/10/27 06:24:13;;;;;;;11.80;4.15;;;17.90;99.90;;;;;;4843458;29;20364;-76
2023/10/27 06:26:39;;;;;;;14.95;7.65;;;18.00;99.90;;;;;;4843289;29;20494;-76
2023/10/27 06:29:05;;;;;;;16.20;8.15;;;18.00;99.90;;;;;;4843302;29;20082;-76
2023/10/27 06:31:31;;;;;;;18.98;7.55;;;18.00;99.90;;;;;;4843211;29;20527;-76
2023/10/27 06:33:57;;;;;;;18.13;5.45;;;18.00;99.90;;;;;;4843259;29;20037;-76
2023/10/27 06:36:23;;;;;;;17.60;4.47;;;17.90;99.90;;;;;;4842845;29;20042;-78
2023/10/27 06:38:48;;;;;;;9.95;4.28;;;18.00;99.90;;;;;;4843114;29;20026;-78
2023/10/27 06:41:14;;;;;;;8.32;3.50;;;17.90;99.90;;;;;;4842953;29;20513;-77
2023/10/27 06:43:40;;;;;;;10.18;3.10;;;17.90;99.90;;;;;;4843120;29;20490;-76
2023/10/27 06:46:06;;;;;;;7.35;2.75;;;17.90;99.90;;;;;;4842802;29;20055;-77
2023/10/27 06:48:32;;;;;;;10.93;2.97;;;18.00;99.90;;;;;;4843126;29;20045;-74
2023/10/27 06:50:58;;;;;;;9.73;3.25;;;18.00;99.90;;;;;;4842354;29;20038;-76
2023/10/27 06:53:23;;;;;;;8.38;3.53;;;18.10;99.90;;;;;;4843111;29;20044;-76
2023/10/27 06:55:49;;;;;;;6.32;2.75;;;18.10;99.90;;;;;;4842284;29;20040;-76
2023/10/27 06:58:15;;;;;;;9.52;4.05;;;18.20;99.90;;;;;;4842973;29;20034;-76
2023/10/27 07:00:41;;;;;;;10.13;4.53;;;18.20;99.90;;;;;;4842250;29;20037;-76
2023/10/27 07:03:07;;;;;;;7.28;2.83;;;18.30;99.90;;;;;;4842467;29;20026;-76
2023/10/27 07:05:33;;;;;;;4.22;2.22;;;18.30;99.90;;;;;;4842774;29;21332;-75
2023/10/27 07:07:58;;;;;;;10.10;2.38;;;18.40;99.90;;;;;;4842512;29;20054;-75
2023/10/27 07:10:25;;;;;;;7.20;2.63;;;18.50;99.90;;;;;;4842432;29;20058;-75
2023/10/27 07:12:51;;;;;;;8.63;2.67;;;18.50;99.90;;;;;;4842505;29;20101;-74
2023/10/27 07:15:19;;;;;;;7.25;2.58;;;18.50;99.90;;;;;;4841539;29;20128;-75
2023/10/27 07:17:45;;;;;;;5.68;2.92;;;18.50;99.90;;;;;;4842299;29;20086;-73
2023/10/27 07:20:11;;;;;;;6.28;2.83;;;18.50;99.90;;;;;;4842335;29;20437;-75
2023/10/27 07:22:37;;;;;;;5.45;2.92;;;18.50;99.90;;;;;;4842342;29;20034;-75
2023/10/27 07:25:04;;;;;;;10.35;2.90;;;18.60;99.90;;;;;;4842273;29;20063;-75
2023/10/27 07:27:29;;;;;;;15.25;3.00;;;18.50;99.90;;;;;;4842169;29;20030;-74
2023/10/27 07:29:55;;;;;;;11.82;4.10;;;18.50;99.90;;;;;;4842037;29;20378;-75
2023/10/27 07:32:21;;;;;;;9.63;3.90;;;18.50;99.90;;;;;;4842249;29;20026;-75
2023/10/27 07:34:51;;;;;;;10.65;3.65;;;18.50;99.90;;;;;;4841853;29;20129;-75
2023/10/27 07:37:20;;;;;;;8.73;3.83;;;18.50;99.90;;;;;;4842144;29;20034;-76
2023/10/27 07:39:46;;;;;;;12.07;4.68;;;18.50;99.90;;;;;;4841544;29;20045;-75
2023/10/27 07:42:13;;;;;;;14.05;5.90;;;18.60;99.90;;;;;;4842142;29;20022;-74
2023/10/27 07:44:40;;;;;;;17.42;4.72;;;18.60;99.90;;;;;;4841814;29;20112;-75
2023/10/27 07:47:06;;;;;;;13.77;5.35;;;18.70;99.90;;;;;;4841976;29;20502;-74
2023/10/27 07:49:32;;;;;;;14.07;5.32;;;18.80;99.90;;;;;;4841380;29;20026;-75
2023/10/27 07:51:58;;;;;;;13.30;5.55;;;18.80;99.90;;;;;;4841655;29;20038;-74
2023/10/27 07:54:24;;;;;;;15.35;5.25;;;18.90;99.90;;;;;;4841688;29;20029;-75
2023/10/27 07:56:49;;;;;;;12.90;6.20;;;19.10;99.90;;;;;;4841602;29;20110;-75
2023/10/27 07:59:15;;;;;;;9.65;5.57;;;19.10;99.90;;;;;;4841782;29;20026;-75
2023/10/27 08:01:41;;;;;;;14.15;5.80;;;19.20;99.90;;;;;;4841709;29;20034;-75
2023/10/27 08:04:07;;;;;;;14.43;6.32;;;19.30;99.90;;;;;;4841648;29;20398;-74
2023/10/27 08:06:33;;;;;;;15.93;7.57;;;19.30;99.90;;;;;;4841536;29;20026;-76
2023/10/27 08:08:59;;;;;;;14.35;7.53;;;19.40;99.90;;;;;;4841388;29;20202;-75
2023/10/27 08:11:25;;;;;;;9.18;3.72;;;19.60;99.90;;;;;;4841566;29;20121;-76
2023/10/27 08:13:50;;;;;;;9.88;3.83;;;19.60;99.90;;;;;;4841515;29;20418;-76
2023/10/27 08:16:16;;;;;;;9.20;3.90;;;19.70;99.90;;;;;;4841217;29;20074;-76
2023/10/27 08:18:42;;;;;;;11.40;3.38;;;19.80;99.90;;;;;;4841252;29;20489;-76
2023/10/27 08:21:08;;;;;;;6.90;3.03;;;19.90;99.90;;;;;;4841827;29;20036;-76
2023/10/27 08:23:34;;;;;;;8.60;3.25;;;20.10;99.90;;;;;;4841041;29;20018;-75
2023/10/27 08:26:00;;;;;;;8.18;3.30;;;20.10;99.90;;;;;;4841245;29;20090;-74
2023/10/27 08:28:27;;;;;;;5.32;3.28;;;20.20;99.90;;;;;;4841140;29;20034;-76
2023/10/27 08:30:53;;;;;;;13.45;4.50;;;20.20;99.90;;;;;;4851957;29;20367;-78
2023/10/27 08:33:19;;;;;;;9.80;3.88;;;20.20;99.90;;;;;;4842960;29;20034;-78
2023/10/27 08:35:45;;;;;;;9.38;4.45;;;20.30;99.90;;;;;;4841104;29;20497;-74
2023/10/27 08:38:11;;;;;;;9.23;4.88;;;20.40;99.90;;;;;;4841147;29;20117;-78
2023/10/27 08:40:37;;;;;;;11.25;4.53;;;20.50;99.90;;;;;;4841216;29;20038;-78
2023/10/27 08:43:03;;;;;;;8.85;4.28;;;20.50;99.90;;;;;;4840969;29;20475;-78
2023/10/27 08:45:31;;;;;;;10.23;4.60;;;20.60;99.90;;;;;;4841193;29;20487;-78
2023/10/27 08:48:00;;;;;;;11.02;5.07;;;20.70;99.90;;;;;;4841018;29;20038;-75
2023/10/27 08:50:27;;;;;;;11.48;5.07;;;20.80;99.90;;;;;;4840917;29;20034;-77
2023/10/27 08:52:52;;;;;;;8.65;4.25;;;20.80;99.40;;;;;;4840935;29;20368;-75
2023/10/27 08:55:20;;;;;;;11.30;5.22;;;20.90;99.30;;;;;;4840868;29;20041;-78
2023/10/27 08:57:46;;;;;;;8.60;4.22;;;21.00;99.20;;;;;;4841315;29;20520;-78
2023/10/27 09:00:13;;;;;;;10.35;4.45;;;21.10;99.10;;;;;;4841166;29;20074;-76
2023/10/27 09:02:39;;;;;;;7.40;3.90;;;21.20;99.10;;;;;;4824646;29;20045;-76
2023/10/27 09:05:06;;;;;;;8.10;3.60;;;21.30;99.20;;;;;;4841251;29;20030;-75
2023/10/27 09:07:33;;;;;;;8.73;4.18;;;21.30;98.80;;;;;;4840737;29;20041;-75
2023/10/27 09:10:00;;;;;;;11.27;4.10;;;21.30;98.90;;;;;;4840809;29;20531;-74
2023/10/27 09:12:29;;;;;;;10.70;4.68;;;21.40;98.40;;;;;;4840949;29;20030;-76
2023/10/27 09:15:06;;;;;;;9.07;4.47;;;21.40;98.70;;;;;;4841083;29;20030;-75
2023/10/27 09:17:53;;;;;;;7.22;4.00;;;21.50;98.80;;;;;;4840623;29;20036;-76
2023/10/27 09:20:26;;;;;;;10.32;4.28;;;21.50;98.90;;;;;;4840845;29;20381;-76
2023/10/27 09:23:04;;;;;;;9.20;4.78;;;21.50;99.00;;;;;;4841106;29;20087;-76
2023/10/27 09:25:34;;;;;;;7.75;4.38;;;21.50;98.90;;;;;;4840832;29;20040;-76
2023/10/27 09:28:03;;;;;;;10.25;4.07;;;21.50;99.40;;;;;;4840672;29;20038;-76
2023/10/27 09:30:31;;;;;;;7.40;4.68;;;21.60;99.00;;;;;;4841003;29;20082;-76
2023/10/27 09:33:18;;;;;;;11.80;4.18;;;21.60;99.00;;;;;;4840469;29;20111;-76
2023/10/27 09:35:48;;;;;;;11.48;4.38;;;21.60;99.90;;;;;;4841091;29;20482;-75
2023/10/27 09:38:15;;;;;;;9.15;3.65;;;21.70;98.60;;;;;;4841770;29;20360;-76
2023/10/27 09:40:42;;;;;;;13.32;3.45;;;21.80;98.70;;;;;;4844138;29;20033;-76
2023/10/27 09:43:14;;;;;;;9.77;4.38;;;21.80;99.20;;;;;;4844070;29;20101;-75
2023/10/27 09:45:44;;;;;;;;;;;21.80;99.70;;;;;;4844171;29;20421;-76
2023/10/27 09:48:11;;;;;;;14.20;4.72;;;21.70;99.90;;;;;;4832384;29;19916;-75
2023/10/27 09:50:39;;;;;;;12.43;4.72;;;21.60;99.90;;;;;;4844032;29;20022;-75
2023/10/27 09:53:06;;;;;;;12.23;5.55;;;21.50;99.90;;;;;;4844071;29;20038;-76
2023/10/27 09:55:32;;;;;;;10.07;4.47;;;21.50;99.90;;;;;;4843514;29;20034;-74
2023/10/27 09:57:59;;;;;;;12.40;3.55;;;21.40;99.90;;;;;;4843739;29;20026;-76
2023/10/27 10:00:31;;;;;;;3.72;2.38;;;21.40;99.70;;;;;;4843814;29;20086;-77
2023/10/27 10:02:58;;;;;;;;;;;21.60;97.50;;;;;;4844052;29;20046;-77
2023/10/27 10:05:24;;;;;;;5.93;2.88;;;21.80;96.50;;;;;;4843579;29;20007;-77
2023/10/27 10:07:56;;;;;;;7.55;2.85;;;22.00;96.20;;;;;;4843367;29;20054;-77
2023/10/27 10:10:32;;;;;;;7.85;2.70;;;22.10;96.10;;;;;;4843526;29;20526;-76
2023/10/27 10:13:08;;;;;;;5.53;3.25;;;22.30;96.70;;;;;;4843651;29;20041;-77
2023/10/27 10:15:35;;;;;;;3.95;2.28;;;22.40;96.60;;;;;;4855601;29;20038;-76
2023/10/27 10:18:02;;;;;;;5.22;2.42;;;;;;;;;;4843520;29;20029;-76
2023/10/27 10:20:44;;;;;;;9.13;2.97;;;22.60;99.90;;;;;;4843119;29;20483;-76
2023/10/27 10:23:11;;;;;;;5.72;2.42;;;;;;;;;;4843302;29;20049;-76
2023/10/27 10:25:50;;;;;;;8.73;4.53;;;22.60;95.30;;;;;;4843355;29;20030;-77
2023/10/27 10:28:18;;;;;;;8.07;3.80;;;22.70;95.50;;;;;;4843278;29;20121;-77
2023/10/27 10:30:48;;;;;;;10.93;3.22;;;22.80;95.20;;;;;;4843390;29;20041;-76
2023/10/27 10:33:14;;;;;;;5.65;2.58;;;;;;;;;;4826914;29;20443;-74
2023/10/27 10:35:44;;;;;;;14.45;5.70;;;23.00;95.00;;;;;;4843138;29;20038;-75
2023/10/27 10:38:37;;;;;;;6.47;2.30;;;23.10;99.90;;;;;;4843044;29;20065;-76
2023/10/27 10:41:03;;;;;;;7.38;1.35;;;23.10;95.10;;;;;;4831134;29;20050;-77
2023/10/27 10:43:36;;;;;;;3.95;1.60;;;23.20;95.00;;;;;;4843307;29;20083;-77
2023/10/27 10:46:12;;;;;;;5.38;1.73;;;23.30;94.70;;;;;;4843119;29;20030;-77
2023/10/27 10:48:44;;;;;;;6.45;1.45;;;23.30;94.00;;;;;;4842611;29;20368;-77
2023/10/27 10:51:14;;;;;;;3.47;1.45;;;23.40;95.90;;;;;;4841937;29;20041;-77
2023/10/27 10:53:42;;;;;;;4.88;2.28;;;;;;;;;;4842705;29;20052;-77
2023/10/27 10:56:08;;;;;;;5.72;1.90;;;23.60;99.90;;;;;;4842592;29;20094;-75
2023/10/27 10:58:40;;;;;;;4.35;1.85;;;23.50;93.20;;;;;;4842990;29;20030;-78
2023/10/27 11:01:18;;;;;;;3.45;1.88;;;23.60;92.80;;;;;;4842420;29;20387;-77
2023/10/27 11:03:50;;;;;;;3.85;2.03;;;23.60;92.70;;;;;;4842528;29;20022;-77
2023/10/27 11:06:21;;;;;;;10.30;2.45;;;23.70;93.10;;;;;;4842590;29;20048;-76
2023/10/27 11:08:47;;;;;;;6.55;3.75;;;23.70;92.80;;;;;;4842273;29;20054;-75
2023/10/27 11:11:14;;;;;;;3.25;1.98;;;23.80;93.00;;;;;;4842685;29;20045;-78
2023/10/27 11:13:47;;;;;;;9.55;3.55;;;23.90;91.80;;;;;;4842160;29;20498;-79
2023/10/27 11:16:27;;;;;;;14.55;1.73;;;23.90;91.50;;;;;;4842786;29;20077;-78
2023/10/27 11:18:59;;;;;;;4.57;1.58;;;24.00;91.80;;;;;;4842036;29;20034;-78
2023/10/27 11:21:29;;;;;;;3.20;1.60;;;24.20;91.90;;;;;;4842284;29;20049;-78
2023/10/27 11:23:55;;;;;;;8.40;2.95;;;24.10;92.30;;;;;;4842410;29;20017;-78
2023/10/27 11:26:26;;;;;;;5.43;2.00;;;24.10;91.40;;;;;;4841988;29;20026;-78
2023/10/27 11:28:55;;;;;;;5.60;1.98;;;24.10;91.50;;;;;;4842317;29;20026;-79
2023/10/27 11:31:30;;;;;;;6.05;2.35;;;24.20;91.30;;;;;;4842163;29;20062;-78
2023/10/27 11:34:03;;;;;;;4.53;1.88;;;24.30;91.50;;;;;;4842021;29;20479;-76
2023/10/27 11:36:36;;;;;;;4.03;1.92;;;24.40;90.90;;;;;;4842163;29;20038;-78
2023/10/27 11:39:17;;;;;;;2.80;1.25;;;24.30;90.70;;;;;;4841938;29;20053;-79
2023/10/27 11:41:54;;;;;;;3.50;1.48;;;24.40;90.60;;;;;;4842066;29;20025;-78
2023/10/27 11:44:21;;;;;;;2.92;1.05;;;24.50;90.80;;;;;;4826028;29;20040;-76
2023/10/27 11:46:49;;;;;;;4.95;1.83;;;24.60;90.30;;;;;;4841873;29;20022;-79
2023/10/27 11:49:15;;;;;;;4.43;1.98;;;24.60;90.60;;;;;;4829651;29;20026;-79
2023/10/27 11:51:49;;;;;;;5.07;0.98;;;24.70;90.60;;;;;;4841761;29;20064;-78
2023/10/27 11:54:15;;;;;;;3.10;1.02;;;24.70;90.30;;;;;;4842003;29;20028;-77
2023/10/27 11:56:42;;;;;;;2.63;1.17;;;24.70;90.00;;;;;;4841706;29;20403;-77
2023/10/27 11:59:09;;;;;;;4.55;1.48;;;24.70;90.30;;;;;;4841591;29;20078;-76
2023/10/27 12:01:39;;;;;;;4.40;1.40;;;24.60;90.00;;;;;;4841675;29;20034;-77
2023/10/27 12:04:12;;;;;;;5.95;1.55;;;24.70;90.30;;;;;;4841385;29;20110;-77
2023/10/27 12:06:40;;;;;;;3.13;1.45;;;24.70;90.30;;;;;;4841883;29;20037;-77
2023/10/27 12:09:07;;;;;;;2.35;0.95;;;24.70;90.20;;;;;;4841614;29;20057;-77
2023/10/27 12:11:33;;;;;;;5.70;1.05;;;24.70;90.40;;;;;;4841618;29;20029;-78
2023/10/27 12:13:59;;;;;;;2.20;1.10;;;24.70;90.50;;;;;;4841336;29;20041;-76
2023/10/27 12:16:27;;;;;;;2.05;1.05;;;24.70;90.30;;;;;;4841573;29;20505;-78
2023/10/27 12:18:55;;;;;;;4.20;1.35;;;24.60;90.40;;;;;;4841301;29;20087;-77
2023/10/27 12:21:25;;;;;;;2.17;0.90;;;24.60;90.20;;;;;;4841246;29;20038;-76
2023/10/27 12:23:52;;;;;;;4.95;1.35;;;24.60;90.50;;;;;;4830044;29;20364;-78
2023/10/27 12:26:18;;;;;;;3.08;1.50;;;24.70;90.70;;;;;;4841564;29;20030;-75
2023/10/27 12:28:45;;;;;;;7.15;1.98;;;24.70;90.50;;;;;;4841342;29;20033;-78
2023/10/27 12:31:13;;;;;;;3.55;1.77;;;24.70;90.70;;;;;;4841259;29;20049;-77
2023/10/27 12:33:40;;;;;;;2.00;1.48;;;24.70;90.40;;;;;;4841276;29;20026;-79
2023/10/27 12:36:14;;;;;;;3.58;0.93;;;24.60;89.80;;;;;;4841012;29;20138;-74
2023/10/27 12:38:41;;;;;;;2.53;1.27;;;24.60;90.30;;;;;;4841158;29;20034;-78
2023/10/27 12:41:07;;;;;;;3.80;1.08;;;24.60;90.20;;;;;;4841100;29;20061;-76
2023/10/27 12:43:33;;;;;;;3.67;1.60;;;24.60;90.40;;;;;;4841055;29;20503;-78
2023/10/27 12:46:03;;;;;;;4.00;1.52;;;24.60;90.20;;;;;;4840985;29;20037;-76